Time;durP1;ratioP1;P1;durP2;ratioP2;P2;SDS_P1;SDS_P2;PMS_P1;PMS_P2;Temp;Humidity;BMP_temperature;BMP_pressure;BME280_temperature;BME280_humidity;BME280_pressure;Samples;Min_cycle;Max_cycle;Signal;HPM_P1;HPM_P2
2023/01/14 00:01:59;;;;;;;;;;;8.90;99.90;;;;;;2616289;39;20153;-63
2023/01/14 00:04:29;;;;;;;;;;;8.90;99.90;;;;;;2615289;47;20490;-62
2023/01/14 00:06:58;;;;;;;;;;;8.90;99.90;;;;;;2615492;47;19946;-63
2023/01/14 00:09:31;;;;;;;;;;;8.90;99.90;;;;;;2615596;47;19985;-61
2023/01/14 00:12:00;;;;;;;;;;;8.90;99.90;;;;;;2615725;54;20451;-62
2023/01/14 00:14:30;;;;;;;;;;;8.90;99.90;;;;;;2616003;47;19972;-63
2023/01/14 00:17:01;;;;;;;;;;;8.80;99.90;;;;;;2615053;54;19978;-62
2023/01/14 00:19:30;;;;;;;;;;;8.90;99.90;;;;;;2615506;47;19946;-62
2023/01/14 00:22:00;;;;;;;;;;;8.80;99.90;;;;;;2615845;54;19950;-62
2023/01/14 00:24:32;;;;;;;;;;;8.90;99.90;;;;;;2614972;54;20007;-61
2023/01/14 00:27:02;;;;;;;;;;;8.90;99.90;;;;;;2615806;54;20696;-61
2023/01/14 00:29:32;;;;;;;;;;;8.90;99.90;;;;;;2616633;54;19935;-62
2023/01/14 00:32:03;;;;;;;;;;;8.80;99.90;;;;;;2617069;31;20379;-62
2023/01/14 00:34:33;;;;;;;;;;;8.80;99.90;;;;;;2617792;54;19942;-66
2023/01/14 00:37:03;;;;;;;;;;;8.80;99.90;;;;;;2617795;54;19947;-63
2023/01/14 00:39:36;;;;;;;;;;;8.80;99.90;;;;;;2617791;54;19950;-62
2023/01/14 00:42:06;;;;;;;;;;;8.80;99.90;;;;;;2616534;47;19957;-62
2023/01/14 00:44:35;;;;;;;;;;;8.80;99.90;;;;;;2618256;54;19943;-62
2023/01/14 00:47:05;;;;;;;;;;;8.80;99.90;;;;;;2618527;54;19950;-62
2023/01/14 00:49:34;;;;;;;;;;;8.80;99.90;;;;;;2619919;47;19938;-62
2023/01/14 00:52:04;;;;;;;;;;;8.80;99.90;;;;;;2621087;39;20351;-62
2023/01/14 00:54:36;;;;;;;;;;;8.80;99.90;;;;;;2615678;54;19954;-62
2023/01/14 00:57:05;;;;;;;;;;;8.80;99.90;;;;;;2616431;54;19950;-61
2023/01/14 00:59:35;;;;;;;;;;;8.80;99.90;;;;;;2616039;39;20356;-61
2023/01/14 01:02:06;;;;;;;;;;;8.80;99.90;;;;;;2615877;47;19959;-62
2023/01/14 01:04:36;;;;;;;;;;;8.80;99.90;;;;;;2614922;47;19953;-62
2023/01/14 01:07:05;;;;;;;;;;;8.80;99.90;;;;;;2615592;54;20451;-61
2023/01/14 01:09:37;;;;;;;;;;;8.70;99.90;;;;;;2615243;47;19964;-63
2023/01/14 01:12:07;;;;;;;;;;;8.90;99.90;;;;;;2619235;54;19998;-63
2023/01/14 01:14:37;;;;;;;;;;;8.60;99.90;;;;;;2615860;54;19984;-63
2023/01/14 01:17:06;;;;;;;;;;;8.70;99.90;;;;;;2615169;54;19972;-63
2023/01/14 01:19:35;;;;;;;;;;;8.60;99.90;;;;;;2615506;54;19958;-62
2023/01/14 01:22:05;;;;;;;;;;;8.60;99.90;;;;;;2616358;54;19977;-62
2023/01/14 01:24:37;;;;;;;;;;;8.60;99.90;;;;;;2615003;51;19951;-62
2023/01/14 01:27:07;;;;;;;;;;;8.70;99.90;;;;;;2615784;54;19943;-63
2023/01/14 01:29:37;;;;;;;;;;;8.70;99.90;;;;;;2615249;54;19969;-62
2023/01/14 01:32:06;;;;;;;;;;;8.70;99.90;;;;;;2615711;47;19959;-62
2023/01/14 01:34:36;;;;;;;;;;;8.70;99.90;;;;;;2615608;54;20025;-62
2023/01/14 01:37:05;;;;;;;;;;;8.70;99.90;;;;;;2616274;54;19954;-61
2023/01/14 01:39:38;;;;;;;;;;;8.70;99.90;;;;;;2616232;51;20417;-63
2023/01/14 01:42:07;;;;;;;;;;;8.70;99.90;;;;;;2620385;47;19938;-63
2023/01/14 01:44:52;;;;;;;;;;;8.70;99.90;;;;;;2620217;54;19951;-63
2023/01/14 01:47:22;;;;;;;;;;;8.70;99.90;;;;;;2615044;54;20439;-62
2023/01/14 01:49:51;;;;;;;;;;;8.60;99.90;;;;;;2615155;54;20495;-63
2023/01/14 01:52:23;;;;;;;;;;;8.60;99.90;;;;;;2616176;39;20402;-61
2023/01/14 01:54:57;;;;;;;;;;;8.60;99.90;;;;;;2615415;54;19998;-62
2023/01/14 01:57:27;;;;;;;;;;;8.50;99.90;;;;;;2616816;54;20075;-62
2023/01/14 01:59:58;;;;;;;;;;;8.50;99.90;;;;;;2616021;47;19943;-62
2023/01/14 02:02:28;;;;;;;;;;;8.50;99.90;;;;;;2615751;47;20033;-61
2023/01/14 02:04:58;;;;;;;;;;;8.50;99.90;;;;;;2615686;54;19952;-62
2023/01/14 02:07:28;;;;;;;;;;;8.50;99.90;;;;;;2616439;54;19991;-62
2023/01/14 02:10:01;;;;;;;;;;;8.40;99.90;;;;;;2615215;47;20456;-61
2023/01/14 02:12:38;;;;;;;;;;;8.40;99.90;;;;;;2616075;54;20431;-62
2023/01/14 02:15:13;;;;;;;;;;;8.40;99.90;;;;;;2616455;54;19963;-62
2023/01/14 02:17:46;;;;;;;;;;;8.40;99.90;;;;;;2621370;54;19954;-62
2023/01/14 02:20:18;;;;;;;;;;;8.40;99.90;;;;;;2616742;54;19966;-61
2023/01/14 02:23:05;;;;;;;;;;;8.30;99.90;;;;;;2616900;54;19939;-68
2023/01/14 02:25:51;;;;;;;;;;;8.30;99.90;;;;;;2621996;54;19947;-65
2023/01/14 02:28:26;;;;;;;;;;;8.30;99.90;;;;;;2622473;39;21830;-62
2023/01/14 02:31:02;;;;;;;;;;;8.30;99.90;;;;;;2619461;54;19939;-63
2023/01/14 02:33:42;;;;;;;;;;;8.30;99.90;;;;;;2616732;47;19954;-60
2023/01/14 02:36:16;;;;;;;;;;;8.30;99.90;;;;;;2617303;47;19950;-61
2023/01/14 02:38:49;;;;;;;;;;;8.30;99.90;;;;;;2615833;54;19950;-60
2023/01/14 02:41:21;;;;;;;;;;;8.30;99.90;;;;;;2615975;54;20479;-61
2023/01/14 02:46:38;;;;;;;;;;;8.20;99.90;;;;;;2616191;47;19980;-62
2023/01/14 02:49:09;;;;;;;;;;;8.20;99.90;;;;;;2616422;54;19950;-62
2023/01/14 02:51:39;;;;;;;;;;;8.20;99.90;;;;;;2617080;46;19972;-61
2023/01/14 02:54:08;;;;;;;;;;;8.20;99.90;;;;;;2619052;47;19951;-62
2023/01/14 02:56:38;;;;;;;;;;;8.10;99.90;;;;;;2616548;54;19935;-61
2023/01/14 02:59:13;;;;;;;;;;;8.10;99.90;;;;;;2616169;54;19943;-61
2023/01/14 03:01:50;;;;;;;;;;;8.10;99.90;;;;;;2615589;54;19962;-61
2023/01/14 03:04:30;;;;;;;;;;;8.10;99.90;;;;;;2615678;54;19953;-63
2023/01/14 03:07:04;;;;;;;;;;;8.00;99.90;;;;;;2616074;54;20484;-62
2023/01/14 03:09:37;;;;;;;;;;;8.00;99.90;;;;;;2615355;54;19946;-61
2023/01/14 03:12:10;;;;;;;;;;;8.00;99.90;;;;;;2615614;39;20370;-62
2023/01/14 03:14:42;;;;;;;;;;;7.00;99.90;;;;;;2616209;51;19954;-61
2023/01/14 03:17:18;;;;;;;;;;;8.00;99.90;;;;;;2615047;54;19994;-60
2023/01/14 03:19:49;;;;;;;;;;;7.90;99.90;;;;;;2615890;54;19966;-61
2023/01/14 03:22:19;;;;;;;;;;;7.90;99.90;;;;;;2618061;31;20457;-62
2023/01/14 03:24:48;;;;;;;;;;;7.90;99.90;;;;;;2614816;54;20002;-62
2023/01/14 03:27:23;;;;;;;;;;;7.80;99.90;;;;;;2615187;54;19954;-62
2023/01/14 03:29:55;;;;;;;;;;;7.80;99.90;;;;;;2615905;47;19946;-63
2023/01/14 03:32:29;;;;;;;;;;;7.80;99.90;;;;;;2615839;47;19958;-63
2023/01/14 03:35:00;;;;;;;;;;;7.80;99.90;;;;;;2615561;49;19950;-63
2023/01/14 03:37:30;;;;;;;;;;;7.80;99.90;;;;;;2617194;31;20442;-62
2023/01/14 03:40:02;;;;;;;;;;;7.70;99.90;;;;;;2614639;54;19946;-63
2023/01/14 03:42:35;;;;;;;;;;;7.70;99.90;;;;;;2615987;54;20038;-62
2023/01/14 03:45:07;;;;;;;;;;;7.70;99.90;;;;;;2616109;54;19958;-64
2023/01/14 03:47:40;;;;;;;;;;;7.70;99.90;;;;;;2618097;54;19950;-63
2023/01/14 03:50:12;;;;;;;;;;;7.60;99.90;;;;;;2617056;47;19954;-63
2023/01/14 03:52:48;;;;;;;;;;;7.60;99.90;;;;;;2617042;54;19970;-62
2023/01/14 03:55:19;;;;;;;;;;;7.60;99.90;;;;;;2616136;54;19998;-64
2023/01/14 03:57:51;;;;;;;;;;;7.60;99.90;;;;;;2616281;51;20732;-63
2023/01/14 04:00:24;;;;;;;;;;;7.60;99.90;;;;;;2619211;54;19945;-62
2023/01/14 04:02:57;;;;;;;;;;;7.60;99.90;;;;;;2621141;51;19975;-64
2023/01/14 04:05:27;;;;;;;;;;;7.60;99.90;;;;;;2616647;47;19961;-66
2023/01/14 04:07:58;;;;;;;;;;;7.60;99.90;;;;;;2616682;51;19953;-62
2023/01/14 04:10:28;;;;;;;;;;;7.60;99.90;;;;;;2616911;54;19981;-62
2023/01/14 04:15:45;;;;;;;;;;;7.60;99.90;;;;;;2613997;54;20038;-62
2023/01/14 04:18:17;;;;;;;;;;;7.60;99.90;;;;;;2615421;54;20011;-64
2023/01/14 04:20:46;;;;;;;;;;;7.60;99.90;;;;;;2619586;39;20184;-62
2023/01/14 04:23:16;;;;;;;;;;;7.60;99.90;;;;;;2618412;51;19958;-62
2023/01/14 04:25:46;;;;;;;;;;;7.60;99.90;;;;;;2619272;54;19954;-61
2023/01/14 04:28:16;;;;;;;;;;;7.60;99.90;;;;;;2617004;54;19958;-63
2023/01/14 04:30:45;;;;;;;;;;;7.60;99.90;;;;;;2618738;54;20002;-62
2023/01/14 04:33:17;;;;;;;;;;;7.60;99.90;;;;;;2620184;47;19957;-61
2023/01/14 04:35:48;;;;;;;;;;;7.60;99.90;;;;;;2615001;54;19974;-63
2023/01/14 04:38:18;;;;;;;;;;;7.60;99.90;;;;;;2615350;54;20046;-62
2023/01/14 04:40:47;;;;;;;;;;;7.60;99.90;;;;;;2618055;54;19977;-61
2023/01/14 04:43:14;;;;;;;;;;;7.60;99.90;;;;;;2618145;54;19957;-63
2023/01/14 04:45:44;;;;;;;;;;;7.60;99.90;;;;;;2615048;47;20050;-63
2023/01/14 04:48:13;;;;;;;;;;;7.60;99.90;;;;;;2615897;47;19957;-63
2023/01/14 04:50:46;;;;;;;;;;;7.60;99.90;;;;;;2616172;54;19966;-63
2023/01/14 04:53:17;;;;;;;;;;;7.60;99.90;;;;;;2615460;54;20016;-63
2023/01/14 04:55:47;;;;;;;;;;;7.60;99.90;;;;;;2615411;54;19958;-63
2023/01/14 04:58:17;;;;;;;;;;;7.50;99.90;;;;;;2615257;54;20007;-63
2023/01/14 05:00:47;;;;;;;;;;;7.50;99.90;;;;;;2615045;54;20053;-63
2023/01/14 05:03:17;;;;;;;;;;;7.50;99.90;;;;;;2614671;47;19947;-63
2023/01/14 05:05:49;;;;;;;;;;;7.50;99.90;;;;;;2615775;54;19970;-63
2023/01/14 05:08:19;;;;;;;;;;;7.60;99.90;;;;;;2615197;54;20483;-63
2023/01/14 05:10:49;;;;;;;;;;;7.50;99.90;;;;;;2615436;39;20351;-63
2023/01/14 05:13:19;;;;;;;;;;;7.60;99.90;;;;;;2614798;54;19939;-63
2023/01/14 05:15:49;;;;;;;;;;;7.60;99.90;;;;;;2613416;47;19998;-63
2023/01/14 05:18:19;;;;;;;;;;;7.60;99.90;;;;;;2616223;51;20075;-63
2023/01/14 05:20:51;;;;;;;;;;;7.60;99.90;;;;;;2620108;54;19958;-60
2023/01/14 05:23:21;;;;;;;;;;;7.60;99.90;;;;;;2614644;47;20002;-63
2023/01/14 05:25:50;;;;;;;;;;;7.60;99.90;;;;;;2614947;54;19951;-63
2023/01/14 05:28:20;;;;;;;;;;;7.60;99.90;;;;;;2616776;54;19977;-62
2023/01/14 05:30:50;;;;;;;;;;;7.60;99.90;;;;;;2616528;39;20325;-62
2023/01/14 05:33:20;;;;;;;;;;;7.60;99.90;;;;;;2615488;47;20028;-62
2023/01/14 05:35:55;;;;;;;;;;;7.60;99.90;;;;;;2618867;49;20455;-63
2023/01/14 05:38:25;;;;;;;;;;;7.60;99.90;;;;;;2620222;54;19938;-62
2023/01/14 05:40:55;;;;;;;;;;;7.70;99.90;;;;;;2614600;54;19954;-62
2023/01/14 05:46:08;;;;;;;;;;;7.70;99.90;;;;;;2614319;54;20490;-62
2023/01/14 05:48:38;;;;;;;;;;;7.80;99.90;;;;;;2616086;39;20324;-62
2023/01/14 05:51:12;;;;;;;;;;;7.70;99.90;;;;;;2620415;54;19954;-64
2023/01/14 05:53:43;;;;;;;;;;;7.70;99.90;;;;;;2618118;39;20641;-62
2023/01/14 05:56:13;;;;;;;;;;;7.70;99.90;;;;;;2610736;54;19953;-61
2023/01/14 05:58:42;;;;;;;;;;;7.80;99.90;;;;;;2614538;47;19953;-61
2023/01/14 06:06:43;;;;;;;;;;;7.80;99.90;;;;;;2616947;54;19951;-62
2023/01/14 06:09:13;;;;;;;;;;;7.80;99.90;;;;;;2614370;47;19954;-62
2023/01/14 06:11:44;;;;;;;;;;;7.80;99.90;;;;;;2614159;54;19951;-61
2023/01/14 06:14:13;;;;;;;;;;;7.80;99.90;;;;;;2613931;39;20574;-62
2023/01/14 06:16:43;;;;;;;;;;;7.80;99.90;;;;;;2615045;39;20375;-63
2023/01/14 06:19:14;;;;;;;;;;;7.90;99.90;;;;;;2614315;51;19954;-62
2023/01/14 06:21:46;;;;;;;;;;;7.80;99.90;;;;;;2616193;54;19954;-61
2023/01/14 06:24:16;;;;;;;;;;;7.90;99.90;;;;;;2612646;47;19946;-62
2023/01/14 06:26:45;;;;;;;;;;;7.90;99.90;;;;;;2614020;54;19978;-62
2023/01/14 06:29:15;;;;;;;;;;;7.80;99.90;;;;;;2617091;39;20506;-63
2023/01/14 06:31:45;;;;;;;;;;;7.80;99.90;;;;;;2615844;54;19961;-62
2023/01/14 06:34:14;;;;;;;;;;;7.80;99.90;;;;;;2615637;54;19980;-62
2023/01/14 06:36:46;;;;;;;;;;;7.80;99.90;;;;;;2615142;54;19950;-62
2023/01/14 06:39:16;;;;;;;;;;;7.80;99.90;;;;;;2614457;54;19938;-62
2023/01/14 06:41:45;;;;;;;;;;;7.80;99.90;;;;;;2615526;54;19947;-62
2023/01/14 06:44:17;;;;;;;;;;;7.80;99.90;;;;;;2615569;54;20663;-61
2023/01/14 06:46:46;;;;;;;;;;;7.90;99.90;;;;;;2616451;54;19947;-62
2023/01/14 06:49:16;;;;;;;;;;;7.90;99.90;;;;;;2617272;54;20466;-62
2023/01/14 06:51:48;;;;;;;;;;;7.90;99.90;;;;;;2616136;54;19953;-63
2023/01/14 06:54:18;;;;;;;;;;;7.90;99.90;;;;;;2613897;54;19981;-61
2023/01/14 06:56:47;;;;;;;;;;;7.90;99.90;;;;;;2614050;54;19958;-61
2023/01/14 06:59:17;;;;;;;;;;;7.80;99.90;;;;;;2614807;39;20347;-63
2023/01/14 07:01:47;;;;;;;;;;;7.80;99.90;;;;;;2613980;47;19946;-61
2023/01/14 07:04:16;;;;;;;;;;;7.90;99.90;;;;;;2617282;54;19957;-61
2023/01/14 07:06:49;;;;;;;;;;;7.90;99.90;;;;;;2618673;54;19955;-62
2023/01/14 07:09:18;;;;;;;;;;;7.90;99.90;;;;;;2612413;54;21206;-60
2023/01/14 07:11:48;;;;;;;;;;;7.90;99.90;;;;;;2614402;54;19950;-59
2023/01/14 07:14:17;;;;;;;;;;;7.90;99.90;;;;;;2613314;47;20463;-60
2023/01/14 07:16:47;;;;;;;;;;;7.90;99.90;;;;;;2614791;47;20024;-62
2023/01/14 07:19:16;;;;;;;;;;;7.90;99.90;;;;;;2612753;54;20001;-62
2023/01/14 07:21:48;;;;;;;;;;;7.90;99.90;;;;;;2613771;54;19946;-62
2023/01/14 07:24:18;;;;;;;;;;;7.90;99.90;;;;;;2612132;54;19958;-60
2023/01/14 07:26:48;;;;;;;;;;;7.90;99.90;;;;;;2619644;54;20050;-60
2023/01/14 07:29:17;;;;;;;;;;;7.90;99.90;;;;;;2619043;54;19973;-61
2023/01/14 07:31:47;;;;;;;;;;;7.90;99.90;;;;;;2615427;54;20014;-60
2023/01/14 07:34:17;;;;;;;;;;;7.90;99.90;;;;;;2612751;54;21168;-62
2023/01/14 07:36:50;;;;;;;;;;;7.90;99.90;;;;;;2613196;54;19959;-63
2023/01/14 07:39:19;;;;;;;;;;;7.90;99.90;;;;;;2614272;54;20632;-63
2023/01/14 07:41:50;;;;;;;;;;;8.00;99.90;;;;;;2614272;47;19982;-62
2023/01/14 07:44:23;;;;;;;;;;;7.90;99.90;;;;;;2616068;39;20761;-63
2023/01/14 07:46:53;;;;;;;;;;;7.90;99.90;;;;;;2613513;54;19947;-61
2023/01/14 07:49:23;;;;;;;;;;;7.90;99.90;;;;;;2612860;54;19974;-63
2023/01/14 07:51:55;;;;;;;;;;;7.90;99.90;;;;;;2615586;54;19994;-63
2023/01/14 07:54:25;;;;;;;;;;;7.90;99.90;;;;;;2616197;39;20375;-63
2023/01/14 07:56:54;;;;;;;;;;;7.90;99.90;;;;;;2615788;54;19986;-63
2023/01/14 07:59:24;;;;;;;;;;;8.00;99.90;;;;;;2614878;47;19958;-62
2023/01/14 08:01:53;;;;;;;;;;;8.00;99.90;;;;;;2615314;47;19950;-63
2023/01/14 08:04:23;;;;;;;;;;;8.00;99.90;;;;;;2615810;47;19952;-64
2023/01/14 08:06:56;;;;;;;;;;;8.00;99.90;;;;;;2616452;47;19954;-62
2023/01/14 08:09:26;;;;;;;;;;;8.10;99.90;;;;;;2615524;54;19946;-62
2023/01/14 08:11:55;;;;;;;;;;;8.00;99.90;;;;;;2613828;54;20034;-63
2023/01/14 08:14:25;;;;;;;;;;;8.00;99.90;;;;;;2614155;54;19985;-62
2023/01/14 08:16:54;;;;;;;;;;;8.10;99.90;;;;;;2613233;54;20577;-61
2023/01/14 08:19:24;;;;;;;;;;;8.00;99.90;;;;;;2615511;54;19959;-60
2023/01/14 08:21:56;;;;;;;;;;;8.00;99.90;;;;;;2621319;47;20427;-62
2023/01/14 08:24:25;;;;;;;;;;;8.00;99.90;;;;;;2615145;54;19973;-61
2023/01/14 08:26:55;;;;;;;;;;;8.10;99.90;;;;;;2616166;47;19991;-62
2023/01/14 08:29:24;;;;;;;;;;;8.00;99.90;;;;;;2616714;39;22002;-60
2023/01/14 08:31:54;;;;;;;;;;;8.10;99.90;;;;;;2616536;54;19973;-61
2023/01/14 08:34:24;;;;;;;;;;;8.10;99.90;;;;;;2615124;54;19946;-61
2023/01/14 08:36:56;;;;;;;;;;;8.10;99.90;;;;;;2616038;39;20376;-61
2023/01/14 08:39:26;;;;;;;;;;;8.10;99.90;;;;;;2615504;54;19947;-63
2023/01/14 08:41:55;;;;;;;;;;;8.10;99.90;;;;;;2616806;54;19965;-62
2023/01/14 08:44:25;;;;;;;;;;;8.10;99.90;;;;;;2612097;54;20968;-62
2023/01/14 08:46:54;;;;;;;;;;;8.10;99.90;;;;;;2615938;54;19953;-62
2023/01/14 08:49:24;;;;;;;;;;;8.10;99.90;;;;;;2616608;47;19967;-62
2023/01/14 08:51:53;;;;;;;;;;;8.10;99.90;;;;;;2618101;54;19934;-64
2023/01/14 08:54:25;;;;;;;;;;;8.10;99.90;;;;;;2616551;54;19954;-63
2023/01/14 08:56:56;;;;;;;;;;;8.10;99.90;;;;;;2616508;47;19960;-63
2023/01/14 08:59:25;;;;;;;;;;;8.10;99.90;;;;;;2617245;54;19954;-58
2023/01/14 09:01:55;;;;;;;;;;;8.10;99.90;;;;;;2619920;39;20387;-61
2023/01/14 09:04:25;;;;;;;;;;;8.10;99.90;;;;;;2617544;47;19954;-62
2023/01/14 09:17:46;;;;;;;;;;;8.10;99.90;;;;;;2617071;54;19987;-64
2023/01/14 09:20:18;;;;;;;;;;;8.70;99.90;;;;;;2618215;46;20016;-64
2023/01/14 09:22:48;;;;;;;;;;;8.10;99.90;;;;;;2620790;47;19962;-63
2023/01/14 09:25:20;;;;;;;;;;;8.10;99.90;;;;;;2620932;54;19953;-62
2023/01/14 09:27:55;;;;;;;;;;;8.20;99.90;;;;;;2620905;54;19950;-63
2023/01/14 09:30:26;;;;;;;;;;;8.10;99.90;;;;;;2621018;47;19950;-64
2023/01/14 09:32:56;;;;;;;;;;;8.10;99.90;;;;;;2616140;39;20009;-62
2023/01/14 09:35:28;;;;;;;;;;;8.20;99.90;;;;;;2616847;39;20363;-64
2023/01/14 09:37:57;;;;;;;;;;;8.20;99.90;;;;;;2616619;47;19976;-63
2023/01/14 09:40:30;;;;;;;;;;;8.10;99.90;;;;;;2617725;39;20371;-63
2023/01/14 09:42:59;;;;;;;;;;;8.10;99.90;;;;;;2619218;54;19951;-63
2023/01/14 09:45:31;;;;;;;;;;;8.10;99.90;;;;;;2619354;54;20509;-64
2023/01/14 09:48:02;;;;;;;;;;;8.10;99.90;;;;;;2618619;54;19934;-62
2023/01/14 09:50:35;;;;;;;;;;;8.20;99.90;;;;;;2618021;39;20401;-63
2023/01/14 09:53:15;;;;;;;;;;;8.20;99.90;;;;;;2615962;54;19958;-69
2023/01/14 09:55:51;;;;;;;;;;;8.20;99.90;;;;;;2618829;54;19954;-64
2023/01/14 09:58:23;;;;;;;;;;;8.10;99.90;;;;;;2618182;47;19990;-63
2023/01/14 10:00:58;;;;;;;;;;;8.20;99.90;;;;;;2616559;39;20704;-64
2023/01/14 10:03:33;;;;;;;;;;;8.20;99.90;;;;;;2617965;39;20366;-62
2023/01/14 10:06:04;;;;;;;;;;;8.20;99.90;;;;;;2617436;47;20424;-64
2023/01/14 10:08:35;;;;;;;;;;;8.20;99.90;;;;;;2616856;54;19950;-63
2023/01/14 10:11:07;;;;;;;;;;;8.20;99.90;;;;;;2617185;54;19946;-63
2023/01/14 10:13:39;;;;;;;;;;;8.20;99.90;;;;;;2617007;54;19953;-63
2023/01/14 10:16:22;;;;;;;;;;;8.20;99.90;;;;;;2619545;47;19942;-66
2023/01/14 10:19:00;;;;;;;;;;;8.30;99.90;;;;;;2621457;47;20013;-64
2023/01/14 10:21:31;;;;;;;;;;;8.30;99.90;;;;;;2623529;47;19950;-63
2023/01/14 10:24:01;;;;;;;;;;;8.30;99.90;;;;;;2621007;51;19939;-64
2023/01/14 10:26:34;;;;;;;;;;;8.30;99.90;;;;;;2621136;54;19950;-64
2023/01/14 10:29:05;;;;;;;;;;;8.30;99.90;;;;;;2621576;54;19958;-63
2023/01/14 10:31:37;;;;;;;;;;;8.30;99.90;;;;;;2619881;54;19954;-64
2023/01/14 10:34:07;;;;;;;;;;;8.30;99.90;;;;;;2618596;54;20053;-65
2023/01/14 10:36:37;;;;;;;;;;;8.30;99.90;;;;;;2619330;47;19954;-67
2023/01/14 10:39:10;;;;;;;;;;;8.30;99.90;;;;;;2618022;47;19997;-66
2023/01/14 10:41:51;;;;;;;;;;;8.30;99.90;;;;;;2618651;54;19953;-63
2023/01/14 10:44:24;;;;;;;;;;;8.30;99.90;;;;;;2618663;47;19990;-63
2023/01/14 10:46:55;;;;;;;;;;;8.40;99.90;;;;;;2619542;39;20084;-61
2023/01/14 10:49:25;;;;;;;;;;;8.40;99.90;;;;;;2617570;54;19958;-61
2023/01/14 10:51:54;;;;;;;;;;;8.50;99.90;;;;;;2617922;31;20477;-62
2023/01/14 10:54:27;;;;;;;;;;;8.50;99.90;;;;;;2616623;47;20692;-60
2023/01/14 10:57:01;;;;;;;;;;;8.60;99.90;;;;;;2617993;54;19954;-61
2023/01/14 10:59:38;;;;;;;;;;;8.60;99.90;;;;;;2617496;49;19950;-64
2023/01/14 11:02:07;;;;;;;;;;;8.60;99.90;;;;;;2616800;54;19987;-67
2023/01/14 11:04:50;;;;;;;;;;;8.60;99.90;;;;;;2617212;54;19938;-63
2023/01/14 11:07:29;;;;;;;;;;;8.60;99.90;;;;;;2617531;54;19950;-65
2023/01/14 11:10:00;;;;;;;;;;;8.70;99.90;;;;;;2617038;54;19947;-63
2023/01/14 11:12:33;;;;;;;;;;;8.70;99.90;;;;;;2617612;31;20465;-63
2023/01/14 11:15:03;;;;;;;;;;;8.70;99.90;;;;;;2617052;47;19947;-62
2023/01/14 11:17:34;;;;;;;;;;;8.70;99.90;;;;;;2621208;47;20056;-63
2023/01/14 11:20:23;;;;;;;;;;;8.70;99.90;;;;;;2621861;53;19946;-62
2023/01/14 11:23:00;;;;;;;;;;;8.70;99.90;;;;;;2618350;51;19953;-61
2023/01/14 11:25:32;;;;;;;;;;;8.70;99.90;;;;;;2616716;46;19962;-63
2023/01/14 11:28:07;;;;;;;;;;;8.80;99.90;;;;;;2617041;54;20070;-65
2023/01/14 11:30:36;;;;;;;;;;;8.80;99.90;;;;;;2617487;54;19990;-65
2023/01/14 11:33:06;;;;;;;;;;;8.80;99.90;;;;;;2616918;54;20461;-64
2023/01/14 11:35:35;;;;;;;;;;;8.90;99.90;;;;;;2618274;47;19935;-64
2023/01/14 11:38:06;;;;;;;;;;;8.90;99.90;;;;;;2620333;46;19954;-66
2023/01/14 11:43:22;;;;;;;;;;;9.00;99.90;;;;;;2616510;47;19999;-67
2023/01/14 11:46:05;;;;;;;;;;;9.00;99.90;;;;;;2616779;47;19957;-66
2023/01/14 11:48:35;;;;;;;;;;;9.00;99.90;;;;;;2617413;46;20719;-64
2023/01/14 11:51:05;;;;;;;;;;;9.00;99.90;;;;;;2617483;54;19947;-64
2023/01/14 11:53:44;;;;;;;;;;;9.10;99.90;;;;;;2616591;39;20351;-63
2023/01/14 11:56:17;;;;;;;;;;;9.00;99.90;;;;;;2616973;47;19947;-63
2023/01/14 11:58:49;;;;;;;;;;;9.10;99.90;;;;;;2616921;47;19946;-64
2023/01/14 12:01:23;;;;;;;;;;;9.10;99.90;;;;;;2616746;47;19954;-65
2023/01/14 12:03:59;;;;;;;;;;;9.10;99.90;;;;;;2616723;54;20461;-64
2023/01/14 12:06:31;;;;;;;;;;;9.10;99.90;;;;;;2617608;47;19939;-65
2023/01/14 12:09:02;;;;;;;;;;;9.10;99.90;;;;;;2617407;54;19979;-65
2023/01/14 12:11:34;;;;;;;;;;;9.10;99.90;;;;;;2617819;54;19954;-64
2023/01/14 12:16:55;;;;;;;;;;;9.10;99.90;;;;;;2619327;47;19947;-63
2023/01/14 12:19:27;;;;;;;;;;;9.10;99.90;;;;;;2620207;54;19950;-63
2023/01/14 12:22:00;;;;;;;;;;;9.10;99.90;;;;;;2619066;54;19990;-65
2023/01/14 12:24:34;;;;;;;;;;;9.20;99.90;;;;;;2616736;54;19962;-64
2023/01/14 12:27:05;;;;;;;;;;;9.20;99.90;;;;;;2616639;54;19954;-63
2023/01/14 12:29:40;;;;;;;;;;;9.20;99.90;;;;;;2620425;47;19946;-64
2023/01/14 12:32:15;;;;;;;;;;;9.20;99.90;;;;;;2620343;47;19946;-62
2023/01/14 12:34:46;;;;;;;;;;;9.20;99.90;;;;;;2617905;54;19970;-62
2023/01/14 12:37:17;;;;;;;;;;;9.10;99.90;;;;;;2616936;47;19954;-62
2023/01/14 12:48:06;;;;;;;;;;;9.10;99.90;;;;;;2615665;47;19988;-62
2023/01/14 12:50:36;;;;;;;;;;;9.20;99.90;;;;;;2618604;54;19983;-63
2023/01/14 12:53:06;;;;;;;;;;;9.20;99.90;;;;;;2621036;47;19938;-63
2023/01/14 12:55:37;;;;;;;;;;;9.20;99.90;;;;;;2617105;47;20431;-62
2023/01/14 12:58:08;;;;;;;;;;;9.20;99.90;;;;;;2617642;47;19950;-63
2023/01/14 13:00:41;;;;;;;;;;;9.20;99.90;;;;;;2617421;47;20405;-64
2023/01/14 13:03:15;;;;;;;;;;;9.20;99.90;;;;;;2617331;54;20467;-63
2023/01/14 13:05:45;;;;;;;;;;;9.20;99.90;;;;;;2616774;54;20466;-63
2023/01/14 13:08:21;;;;;;;;;;;9.20;99.90;;;;;;2616559;47;19977;-62
2023/01/14 13:11:00;;;;;;;;;;;9.20;99.90;;;;;;2617562;54;19969;-62
2023/01/14 13:13:33;;;;;;;;;;;9.20;99.90;;;;;;2616751;51;19971;-62
2023/01/14 13:16:26;;;;;;;;;;;9.20;99.90;;;;;;2618946;54;19986;-61
2023/01/14 13:18:59;;;;;;;;;;;9.30;99.90;;;;;;2618088;47;20026;-64
2023/01/14 13:21:43;;;;;;;;;;;9.30;99.90;;;;;;2618492;54;19946;-64
2023/01/14 13:24:28;;;;;;;;;;;9.20;99.90;;;;;;2617679;39;20010;-63
2023/01/14 13:26:59;;;;;;;;;;;9.20;99.90;;;;;;2616800;47;19947;-62
2023/01/14 13:29:30;;;;;;;;;;;9.30;99.90;;;;;;2616978;54;19950;-63
2023/01/14 13:32:04;;;;;;;;;;;9.30;99.90;;;;;;2616288;47;19947;-62
2023/01/14 13:34:42;;;;;;;;;;;9.30;99.90;;;;;;2616200;47;19946;-62
2023/01/14 13:37:27;;;;;;;;;;;9.40;99.90;;;;;;2614777;39;20340;-62
2023/01/14 13:39:58;;;;;;;;;;;9.40;99.90;;;;;;2614534;54;20046;-65
2023/01/14 13:42:38;;;;;;;;;;;9.50;99.90;;;;;;2616457;54;19961;-64
2023/01/14 13:45:09;;;;;;;;;;;9.40;99.90;;;;;;2614656;47;19949;-64
2023/01/14 13:47:41;;;;;;;;;;;9.40;99.90;;;;;;2614499;47;19953;-64
2023/01/14 13:50:21;;;;;;;;;;;9.50;99.90;;;;;;2615794;47;19946;-64
2023/01/14 13:52:52;;;;;;;;;;;9.50;99.90;;;;;;2616507;54;19953;-63
2023/01/14 13:55:24;;;;;;;;;;;9.50;99.90;;;;;;2615748;54;19946;-67
2023/01/14 13:57:55;;;;;;;;;;;9.50;99.90;;;;;;2614998;54;19981;-69
2023/01/14 14:00:47;;;;;;;;;;;9.60;99.90;;;;;;2613110;51;19955;-68
2023/01/14 14:03:32;;;;;;;;;;;9.60;99.90;;;;;;2614515;47;19950;-66
2023/01/14 14:06:16;;;;;;;;;;;9.60;99.90;;;;;;2615672;31;20405;-65
2023/01/14 14:08:51;;;;;;;;;;;9.60;99.90;;;;;;2616156;47;19954;-65
2023/01/14 14:11:21;;;;;;;;;;;9.60;99.90;;;;;;2616358;54;19981;-64
2023/01/14 14:16:35;;;;;;;;;;;9.70;99.90;;;;;;2608716;48;19985;-63
2023/01/14 14:19:07;;;;;;;;;;;9.60;99.90;;;;;;2615308;54;19951;-64
2023/01/14 14:21:40;;;;;;;;;;;9.60;99.90;;;;;;2613868;47;19955;-64
2023/01/14 14:24:20;;;;;;;;;;;9.60;99.90;;;;;;2615620;39;20362;-64
2023/01/14 14:26:51;;;;;;;;;;;9.60;99.90;;;;;;2614692;54;20030;-65
2023/01/14 14:29:23;;;;;;;;;;;9.70;99.90;;;;;;2614383;39;20375;-65
2023/01/14 14:32:02;;;;;;;;;;;9.70;99.90;;;;;;2614657;54;19957;-62
2023/01/14 14:34:32;;;;;;;;;;;9.70;99.90;;;;;;2614360;47;19942;-63
2023/01/14 14:37:07;;;;;;;;;;;9.60;99.90;;;;;;2614814;47;19951;-63
2023/01/14 14:39:41;;;;;;;;;;;9.70;99.90;;;;;;2616684;47;19947;-63
2023/01/14 14:42:14;;;;;;;;;;;9.60;99.90;;;;;;2620839;54;19995;-64
2023/01/14 14:44:54;;;;;;;;;;;9.60;99.90;;;;;;2615555;54;19957;-63
2023/01/14 14:47:25;;;;;;;;;;;9.60;99.90;;;;;;2614189;54;20038;-63
2023/01/14 14:49:55;;;;;;;;;;;9.60;99.90;;;;;;2612702;51;19954;-63
2023/01/14 14:52:25;;;;;;;;;;;9.60;99.90;;;;;;2615356;54;19950;-63
2023/01/14 14:55:07;;;;;;;;;;;9.60;99.90;;;;;;2614931;54;19947;-64
2023/01/14 14:57:37;;;;;;;;;;;9.60;99.90;;;;;;2613794;53;20091;-63
2023/01/14 15:00:08;;;;;;;;;;;9.60;99.90;;;;;;2614737;54;19950;-63
2023/01/14 15:02:41;;;;;;;;;;;9.80;99.90;;;;;;2614036;54;19969;-63
2023/01/14 15:05:16;;;;;;;;;;;9.60;99.90;;;;;;2613987;47;19954;-63
2023/01/14 15:07:46;;;;;;;;;;;9.70;99.90;;;;;;2616451;47;20026;-64
2023/01/14 15:10:21;;;;;;;;;;;9.70;99.90;;;;;;2618132;54;19943;-63
2023/01/14 15:12:50;;;;;;;;;;;9.70;99.90;;;;;;2615778;54;20803;-63
2023/01/14 15:15:21;;;;;;;;;;;9.70;99.90;;;;;;2617921;54;19954;-64
2023/01/14 15:17:52;;;;;;;;;;;9.70;99.90;;;;;;2614252;54;19947;-64
2023/01/14 15:20:21;;;;;;;;;;;9.70;99.90;;;;;;2615635;39;20555;-65
2023/01/14 15:22:51;;;;;;;;;;;9.70;99.90;;;;;;2614434;39;20734;-66
2023/01/14 15:25:26;;;;;;;;;;;9.70;99.90;;;;;;2614989;54;19954;-66
2023/01/14 15:27:56;;;;;;;;;;;9.70;99.90;;;;;;2614721;54;19941;-66
2023/01/14 15:30:26;;;;;;;;;;;9.70;99.90;;;;;;2614330;54;19951;-65
2023/01/14 15:32:57;;;;;;;;;;;9.70;99.90;;;;;;2614221;47;19946;-65
2023/01/14 15:35:28;;;;;;;;;;;9.70;99.90;;;;;;2614574;39;20324;-65
2023/01/14 15:37:58;;;;;;;;;;;9.60;99.90;;;;;;2615173;39;20724;-64
2023/01/14 15:40:35;;;;;;;;;;;9.70;99.90;;;;;;2614410;47;19951;-64